Time;durP1;ratioP1;P1;durP2;ratioP2;P2;SDS_P1;SDS_P2;PMS_P1;PMS_P2;Temp;Humidity;BMP_temperature;BMP_pressure;BME280_temperature;BME280_humidity;BME280_pressure;Samples;Min_cycle;Max_cycle;Signal;HPM_P1;HPM_P2
2023/07/21 00:01:08;;;;;;;6.20;3.75;;;;;;;21.73;93.67;65274.03;5053093;28;20206;-52
2023/07/21 00:03:34;;;;;;;8.38;4.57;;;;;;;21.92;93.23;65292.50;5053189;28;20295;-53
2023/07/21 00:06:01;;;;;;;8.02;4.35;;;;;;;21.92;93.15;65297.09;5053059;28;20209;-53
2023/07/21 00:08:28;;;;;;;7.30;4.25;;;;;;;21.80;93.65;65281.78;5053039;28;20209;-52
2023/07/21 00:10:58;;;;;;;11.20;3.95;;;;;;;21.93;93.47;65298.19;5052808;28;20663;-52
2023/07/21 00:13:25;;;;;;;6.97;3.83;;;;;;;22.01;92.88;65307.63;5052825;28;20212;-53
2023/07/21 00:15:50;;;;;;;6.22;3.80;;;;;;;22.22;91.82;65328.28;5052768;28;20729;-53
2023/07/21 00:18:16;;;;;;;5.03;4.13;;;;;;;22.02;92.80;65306.16;5052691;28;20209;-53
2023/07/21 00:20:42;;;;;;;6.03;3.97;;;;;;;22.20;93.31;65328.63;5052581;28;20201;-53
2023/07/21 00:23:07;;;;;;;8.00;4.03;;;;;;;22.06;93.43;65307.47;5052682;28;20196;-53
2023/07/21 00:25:33;;;;;;;9.70;4.10;;;;;;;21.96;94.01;65301.53;5052927;28;20221;-51
2023/07/21 00:27:58;;;;;;;8.55;3.75;;;;;;;21.95;94.48;65295.84;5052598;28;20270;-52
2023/07/21 00:30:24;;;;;;;5.38;4.13;;;;;;;22.08;93.44;65315.34;5052526;28;20201;-52
2023/07/21 00:32:49;;;;;;;7.63;3.88;;;;;;;22.11;93.08;65316.13;5034766;28;20300;-53
2023/07/21 00:35:15;;;;;;;6.65;4.00;;;;;;;22.11;93.86;65316.13;5052663;28;20224;-52
2023/07/21 00:37:41;;;;;;;6.72;4.32;;;;;;;21.97;93.56;65300.63;5052587;28;20657;-53
2023/07/21 00:40:09;;;;;;;5.93;4.05;;;;;;;21.89;94.48;65289.19;5052448;28;20335;-52
2023/07/21 00:42:36;;;;;;;10.00;4.15;;;;;;;21.92;94.42;65294.53;5052774;28;20217;-51
2023/07/21 00:45:03;;;;;;;7.35;4.30;;;;;;;21.91;94.40;65293.97;5052370;28;20290;-52
2023/07/21 00:47:30;;;;;;;4.38;3.58;;;;;;;21.97;94.06;65300.63;5034547;28;20292;-53
2023/07/21 00:49:56;;;;;;;8.63;4.07;;;;;;;21.90;93.66;65292.88;5052260;28;20209;-52
2023/07/21 00:52:23;;;;;;;8.02;4.00;;;;;;;21.81;94.00;65284.91;5052672;28;20213;-52
2023/07/21 00:54:49;;;;;;;9.93;4.35;;;;;;;21.76;94.36;65279.91;5034718;28;20197;-53
2023/07/21 00:57:20;;;;;;;7.57;3.70;;;;;;;21.76;94.45;65274.78;5052213;28;20370;-52
2023/07/21 00:59:46;;;;;;;7.53;3.78;;;;;;;21.83;93.97;65287.69;5052118;28;20335;-56
2023/07/21 01:02:12;;;;;;;6.65;4.05;;;;;;;21.97;93.97;65300.06;5051658;28;20213;-52
2023/07/21 01:04:39;;;;;;;5.35;3.53;;;;;;;22.05;93.75;65306.34;5052122;28;20266;-52
2023/07/21 01:07:11;;;;;;;5.10;3.40;;;;;;;22.01;93.98;65307.06;5052225;28;20706;-52
2023/07/21 01:09:39;;;;;;;5.60;3.83;;;;;;;21.98;94.29;65298.63;5051986;28;20205;-52
2023/07/21 01:12:06;;;;;;;11.18;4.47;;;;;;;22.01;93.87;65305.03;5052069;28;20248;-52
2023/07/21 01:14:33;;;;;;;6.45;3.53;;;;;;;22.28;92.47;65334.91;5051992;28;20698;-52
2023/07/21 01:17:01;;;;;;;5.13;3.53;;;;;;;22.30;90.95;65336.59;5052015;28;20294;-52
2023/07/21 01:19:28;;;;;;;9.32;4.32;;;;;;;22.21;91.20;65329.19;5052053;28;20196;-53
2023/07/21 01:22:03;;;;;;;7.05;3.78;;;;;;;22.14;91.75;65319.44;5051947;28;20718;-53
2023/07/21 01:24:39;;;;;;;5.03;3.70;;;;;;;22.06;91.56;65313.13;5051740;28;20196;-52
2023/07/21 01:27:05;;;;;;;6.55;3.80;;;;;;;22.05;92.43;65309.47;5051657;28;20213;-53
2023/07/21 01:29:35;;;;;;;7.68;3.83;;;;;;;22.01;93.51;65307.06;5051736;28;20197;-53
2023/07/21 01:32:03;;;;;;;8.23;4.40;;;;;;;21.97;93.68;65300.06;5051841;28;20237;-52
2023/07/21 01:34:32;;;;;;;6.55;3.85;;;;;;;22.14;92.67;65318.88;5051760;28;20224;-52
2023/07/21 01:37:00;;;;;;;5.57;3.92;;;;;;;22.10;92.73;65314.47;5051726;28;20268;-52
2023/07/21 01:39:28;;;;;;;9.07;3.90;;;;;;;21.95;91.53;65295.28;5033692;28;20695;-53
2023/07/21 01:41:55;;;;;;;6.93;4.28;;;;;;;21.80;93.77;65281.22;5051374;28;20213;-53
2023/07/21 01:44:22;;;;;;;6.40;4.07;;;;;;;21.62;95.29;65265.00;5033549;28;20216;-53
2023/07/21 01:46:48;;;;;;;6.75;4.53;;;;;;;21.77;94.46;65278.47;5051559;28;20232;-53
2023/07/21 01:49:20;;;;;;;6.35;4.20;;;;;;;21.83;94.09;65287.69;5051441;28;20193;-52
2023/07/21 01:51:48;;;;;;;7.63;3.97;;;;;;;21.81;94.30;65284.91;5051407;28;20213;-52
2023/07/21 01:54:22;;;;;;;7.55;3.67;;;;;;;21.64;94.47;65266.66;5051329;28;20665;-52
2023/07/21 01:57:16;;;;;;;6.10;3.55;;;;;;;21.69;93.81;65270.16;5051404;28;20213;-53
2023/07/21 01:59:45;;;;;;;6.65;3.75;;;;;;;21.79;93.38;65277.56;5047128;28;20296;-51
2023/07/21 02:02:12;;;;;;;8.20;3.75;;;;;;;21.81;93.32;65282.34;5051215;28;20237;-52
2023/07/21 02:04:38;;;;;;;4.65;4.00;;;;;;;21.64;94.79;65267.19;5051092;28;20205;-52
2023/07/21 02:07:05;;;;;;;5.85;3.70;;;;;;;21.49;95.53;65247.50;5049966;28;20236;-51
2023/07/21 02:09:31;;;;;;;5.63;3.55;;;;;;;21.39;96.29;65236.44;5051320;28;20213;-51
2023/07/21 02:11:58;;;;;;;8.18;4.40;;;;;;;21.38;96.39;65238.44;5050438;28;20706;-52
2023/07/21 02:14:24;;;;;;;6.03;3.78;;;;;;;21.85;93.31;65284.22;5051135;28;20751;-53
2023/07/21 02:16:49;;;;;;;10.27;4.07;;;;;;;21.90;92.11;65290.31;5051171;28;20297;-52
2023/07/21 02:19:15;;;;;;;11.05;3.92;;;;;;;21.74;90.90;65275.69;5051157;28;20228;-53
2023/07/21 02:21:41;;;;;;;5.53;3.50;;;;;;;21.50;91.64;65249.16;5051041;28;20293;-51
2023/07/21 02:24:06;;;;;;;4.63;3.47;;;;;;;21.43;93.66;65243.97;5050969;28;20244;-52
2023/07/21 02:26:32;;;;;;;4.63;3.55;;;;;;;21.51;94.90;65247.69;5051080;28;20267;-52
2023/07/21 02:28:58;;;;;;;6.63;3.80;;;;;;;21.48;92.77;65249.50;5050731;28;20197;-53
2023/07/21 02:31:24;;;;;;;5.80;3.90;;;;;;;21.31;93.66;65227.59;5050605;28;20596;-52
2023/07/21 02:33:51;;;;;;;8.73;3.88;;;;;;;21.36;91.80;65233.66;5051024;28;20201;-52
2023/07/21 02:36:16;;;;;;;5.00;3.53;;;;;;;21.31;91.45;65225.56;5050495;28;20696;-53
2023/07/21 02:38:42;;;;;;;5.20;3.72;;;;;;;21.19;91.35;65214.84;5050541;28;20204;-52
2023/07/21 02:41:09;;;;;;;6.43;3.80;;;;;;;21.08;92.96;65200.13;5050483;28;20297;-53
2023/07/21 02:43:35;;;;;;;5.55;3.72;;;;;;;21.15;92.58;65209.91;5050758;28;20209;-52
2023/07/21 02:46:00;;;;;;;7.75;3.70;;;;;;;21.10;93.57;65204.34;5050331;28;20755;-52
2023/07/21 02:48:26;;;;;;;5.05;4.03;;;;;;;21.08;94.61;65202.16;5050587;28;20719;-52
2023/07/21 02:50:52;;;;;;;8.30;4.18;;;;;;;21.27;93.92;65220.59;5050496;28;20200;-52
2023/07/21 02:53:20;;;;;;;6.53;4.20;;;;;;;21.22;92.99;65218.19;5050426;28;20367;-52
2023/07/21 02:55:46;;;;;;;5.47;3.67;;;;;;;21.08;94.00;65199.59;5050485;28;20193;-53
2023/07/21 02:58:15;;;;;;;8.52;4.28;;;;;;;21.04;94.87;65198.28;5049043;28;20205;-52
2023/07/21 03:00:41;;;;;;;6.20;3.28;;;;;;;21.03;92.61;65199.19;5050056;28;20200;-52
2023/07/21 03:03:12;;;;;;;7.22;3.70;;;;;;;20.98;93.17;65189.06;5050757;28;20258;-52
2023/07/21 03:05:37;;;;;;;5.25;3.85;;;;;;;20.85;94.12;65177.81;5050212;28;20777;-52
2023/07/21 03:08:04;;;;;;;9.57;4.20;;;;;;;20.93;93.29;65186.09;5050239;28;20284;-52
2023/07/21 03:10:30;;;;;;;6.80;3.85;;;;;;;20.84;93.80;65173.59;5048937;28;20380;-52
2023/07/21 03:12:55;;;;;;;6.70;3.63;;;;;;;20.81;93.62;65172.81;5050220;28;20447;-53
2023/07/21 03:15:21;;;;;;;6.03;3.80;;;;;;;20.77;94.66;65168.97;5049287;28;20710;-52
2023/07/21 03:20:31;;;;;;;8.45;4.30;;;;;;;20.92;94.78;65185.00;5050286;28;20208;-58
2023/07/21 03:22:56;;;;;;;6.05;4.70;;;;;;;20.93;94.91;65186.66;5049775;28;20603;-55
2023/07/21 03:25:22;;;;;;;6.97;4.00;;;;;;;20.95;94.69;65188.31;5050153;28;20208;-53
2023/07/21 03:27:47;;;;;;;8.85;4.40;;;;;;;21.07;94.17;65201.59;5050172;28;20703;-51
2023/07/21 03:30:14;;;;;;;7.65;4.75;;;;;;;21.31;93.16;65230.69;5049996;28;20296;-52
2023/07/21 03:32:43;;;;;;;8.15;4.38;;;;;;;21.19;93.61;65214.84;5050377;28;20221;-52
2023/07/21 03:35:08;;;;;;;6.50;5.00;;;;;;;21.03;94.82;65197.16;5050021;28;20274;-52
2023/07/21 03:37:36;;;;;;;5.63;4.40;;;;;;;21.12;94.83;65207.13;5049995;28;20676;-52
2023/07/21 03:40:06;;;;;;;5.00;4.10;;;;;;;21.04;94.89;65200.84;5049899;28;20684;-51
2023/07/21 03:42:33;;;;;;;5.15;4.35;;;;;;;20.97;95.78;65187.94;5049688;28;20272;-52
2023/07/21 03:44:58;;;;;;;11.32;4.65;;;;;;;21.05;95.82;65201.94;5048413;28;20703;-53
2023/07/21 03:47:23;;;;;;;16.40;11.32;;;;;;;20.95;97.24;65188.31;5049809;28;20278;-52
2023/07/21 03:49:50;;;;;;;14.95;11.15;;;;;;;20.92;97.24;65187.56;5049837;28;20204;-52
2023/07/21 03:52:16;;;;;;;10.35;7.13;;;;;;;20.90;97.26;65185.91;5048123;28;20206;-53
2023/07/21 03:54:41;;;;;;;6.40;3.80;;;;;;;20.91;96.85;65187.00;5032072;28;20199;-53
2023/07/21 03:57:07;;;;;;;7.03;4.68;;;;;;;20.93;96.77;65186.66;5049558;28;20217;-52
2023/07/21 03:59:33;;;;;;;8.90;5.53;;;;;;;20.91;97.47;65184.44;5048343;28;20233;-52
2023/07/21 04:01:58;;;;;;;14.65;9.32;;;;;;;21.23;96.36;65218.75;5049257;28;20205;-52
2023/07/21 04:04:24;;;;;;;11.77;8.57;;;;;;;21.28;95.30;65227.38;5049588;28;20198;-52
2023/07/21 04:06:49;;;;;;;14.88;11.13;;;;;;;21.44;94.85;65241.94;5049223;28;20217;-53
2023/07/21 04:09:15;;;;;;;20.95;11.40;;;;;;;21.61;92.04;65261.31;5049473;28;20197;-53
2023/07/21 04:11:41;;;;;;;13.20;9.40;;;;;;;21.18;93.88;65211.19;5049407;28;20209;-53
2023/07/21 04:14:07;;;;;;;8.30;6.63;;;;;;;21.12;92.67;65204.56;5049328;28;20283;-56
2023/07/21 04:16:33;;;;;;;7.53;6.45;;;;;;;20.98;92.83;65194.19;5049083;28;20703;-51
2023/07/21 04:18:58;;;;;;;6.88;4.03;;;;;;;21.19;90.32;65216.88;5049250;28;20262;-52
2023/07/21 04:21:24;;;;;;;8.68;4.28;;;;;;;20.89;90.80;65181.66;5049236;28;20304;-53
2023/07/21 04:23:49;;;;;;;6.70;3.80;;;;;;;20.82;92.46;65173.94;5049130;28;20591;-53
2023/07/21 04:26:16;;;;;;;7.35;4.97;;;;;;;20.95;93.09;65187.75;5048975;28;20256;-57
2023/07/21 04:28:42;;;;;;;11.35;4.13;;;;;;;20.85;94.06;65179.81;5049300;28;20301;-53
2023/07/21 04:31:11;;;;;;;7.78;4.10;;;;;;;21.05;91.46;65196.28;5031441;28;20217;-52
2023/07/21 04:33:37;;;;;;;10.15;4.40;;;;;;;20.86;93.70;65181.47;5049256;28;20205;-52
2023/07/21 04:36:04;;;;;;;8.45;4.38;;;;;;;20.74;96.21;65168.22;5033469;28;20213;-54
2023/07/21 04:38:31;;;;;;;9.68;5.40;;;;;;;20.78;96.98;65172.06;5052301;28;20604;-52
2023/07/21 04:40:56;;;;;;;6.20;4.70;;;;;;;20.67;98.37;65157.91;5052490;28;20201;-52
2023/07/21 04:43:22;;;;;;;9.45;5.43;;;;;;;20.75;98.76;65169.31;5052270;28;20213;-56
2023/07/21 04:45:48;;;;;;;7.07;4.82;;;;;;;20.84;98.80;65178.72;5052174;28;20209;-53
2023/07/21 04:48:14;;;;;;;11.95;5.13;;;;;;;20.97;99.44;65190.50;5052098;28;20311;-57
2023/07/21 04:50:42;;;;;;;7.90;4.50;;;;;;;21.08;98.70;65199.59;5052214;28;20696;-52
2023/07/21 04:53:10;;;;;;;7.32;4.40;;;;;;;21.01;98.64;65194.41;5052037;28;20233;-53
2023/07/21 04:55:36;;;;;;;7.72;4.55;;;;;;;21.24;95.00;65220.41;5052510;28;20292;-53
2023/07/21 04:58:04;;;;;;;5.55;3.95;;;;;;;21.08;92.93;65202.69;5052191;28;20232;-52
2023/07/21 05:00:30;;;;;;;10.63;5.05;;;;;;;21.10;93.60;65204.34;5052414;28;20202;-54
2023/07/21 05:02:56;;;;;;;9.20;4.55;;;;;;;21.17;94.20;65210.06;5052014;28;20619;-55
2023/07/21 05:05:22;;;;;;;9.82;4.28;;;;;;;21.09;94.17;65201.22;5034140;28;20209;-53
2023/07/21 05:07:47;;;;;;;10.90;5.13;;;;;;;21.15;95.08;65209.91;5052106;28;20735;-53
2023/07/21 05:10:13;;;;;;;7.38;4.82;;;;;;;21.31;93.26;65225.03;5052173;28;20201;-52
2023/07/21 05:12:40;;;;;;;6.20;4.93;;;;;;;21.37;93.83;65234.75;5052091;28;20218;-54
2023/07/21 05:15:06;;;;;;;12.00;4.88;;;;;;;21.43;93.42;65243.97;5052082;28;20205;-53
2023/07/21 05:17:32;;;;;;;6.47;4.95;;;;;;;21.65;92.75;65268.28;5052270;28;20213;-53
2023/07/21 05:19:59;;;;;;;9.65;5.63;;;;;;;21.61;92.10;65261.31;5052052;28;20258;-58
2023/07/21 05:22:25;;;;;;;7.18;5.00;;;;;;;21.70;91.94;65271.28;5034132;28;20224;-54
2023/07/21 05:24:51;;;;;;;9.98;5.53;;;;;;;21.79;92.97;65280.69;5051800;28;20722;-55
2023/07/21 05:27:17;;;;;;;7.30;5.47;;;;;;;21.82;93.13;65283.47;5051692;28;20217;-52
2023/07/21 05:29:44;;;;;;;7.22;5.30;;;;;;;21.99;92.90;65304.84;5051849;28;20255;-54
2023/07/21 05:32:09;;;;;;;9.85;5.75;;;;;;;21.97;93.01;65300.63;5051778;28;20237;-53
2023/07/21 05:34:35;;;;;;;10.77;5.57;;;;;;;22.01;93.62;65301.91;5051855;28;20298;-53
2023/07/21 05:37:01;;;;;;;8.40;6.25;;;;;;;22.07;92.96;65308.56;5050212;28;20209;-52
2023/07/21 05:39:30;;;;;;;8.70;5.05;;;;;;;22.09;93.10;65310.78;5050723;28;20194;-53
2023/07/21 05:41:56;;;;;;;6.57;4.90;;;;;;;22.39;91.08;65347.09;5049432;28;20210;-55
2023/07/21 05:44:22;;;;;;;8.85;6.25;;;;;;;22.31;91.39;65335.13;5049532;28;20286;-53
2023/07/21 05:46:47;;;;;;;8.10;5.55;;;;;;;22.32;91.21;65338.81;5048354;28;20648;-54
2023/07/21 05:49:14;;;;;;;7.78;5.30;;;;;;;22.48;91.86;65356.53;5049135;28;20273;-53
2023/07/21 05:51:40;;;;;;;7.93;5.35;;;;;;;22.58;91.61;65367.63;5050502;28;20216;-55
2023/07/21 05:54:07;;;;;;;8.77;5.93;;;;;;;22.91;90.68;65404.16;5033666;28;20197;-52
2023/07/21 05:56:32;;;;;;;10.45;6.70;;;;;;;23.20;88.78;65430.56;5051700;28;20278;-53
2023/07/21 05:58:58;;;;;;;8.70;6.13;;;;;;;23.23;87.31;65439.59;5051647;28;20650;-52
2023/07/21 06:01:24;;;;;;;10.30;6.22;;;;;;;22.92;89.40;65407.84;5050088;28;20214;-58
2023/07/21 06:03:49;;;;;;;11.07;5.97;;;;;;;22.68;91.09;65381.25;5051567;28;20642;-57
2023/07/21 06:06:15;;;;;;;9.13;7.05;;;;;;;22.64;91.20;65371.69;5033352;28;20213;-60
2023/07/21 06:08:41;;;;;;;14.52;8.18;;;;;;;23.05;90.42;65419.66;5051418;28;20327;-54
2023/07/21 06:11:06;;;;;;;11.40;7.00;;;;;;;23.10;89.88;65422.06;5051222;28;20239;-56
2023/07/21 06:13:32;;;;;;;14.70;8.38;;;;;;;23.43;89.41;65460.69;5049981;28;20201;-53
2023/07/21 06:15:58;;;;;;;15.30;6.93;;;;;;;23.12;89.38;65424.84;5051125;28;20201;-54
2023/07/21 06:18:24;;;;;;;11.55;6.47;;;;;;;23.13;89.54;65425.38;5051508;28;20208;-53
2023/07/21 06:20:52;;;;;;;9.95;7.10;;;;;;;23.07;90.10;65419.28;5050977;28;20189;-53
2023/07/21 06:23:19;;;;;;;13.35;6.50;;;;;;;23.25;89.57;65439.22;5051560;28;20255;-53
2023/07/21 06:25:45;;;;;;;11.85;7.10;;;;;;;23.45;89.35;65460.31;5051261;28;20217;-53
2023/07/21 06:28:12;;;;;;;9.75;6.45;;;;;;;23.65;88.12;65485.06;5051612;28;20255;-54
2023/07/21 06:30:37;;;;;;;13.18;7.38;;;;;;;23.64;87.74;65479.34;5051030;28;20197;-52
2023/07/21 06:33:07;;;;;;;10.30;6.78;;;;;;;23.64;87.83;65481.34;5051051;28;20589;-52
2023/07/21 06:35:35;;;;;;;11.35;7.65;;;;;;;23.74;87.48;65493.00;5033149;28;20232;-54
2023/07/21 06:38:01;;;;;;;14.70;7.70;;;;;;;23.65;87.94;65485.06;5050788;28;20272;-53
2023/07/21 06:40:27;;;;;;;12.32;6.85;;;;;;;24.00;87.71;65521.25;5016754;28;20194;-57
2023/07/21 06:42:52;;;;;;;11.38;7.32;;;;;;;23.94;86.93;65517.75;5050798;28;20645;-56
2023/07/21 06:45:18;;;;;;;11.27;7.90;;;;;;;24.03;86.71;65522.03;5050684;28;20234;-53
2023/07/21 06:47:43;;;;;;;12.75;8.05;;;;;;;24.34;85.58;65561.56;5050882;28;20213;-52
2023/07/21 06:50:10;;;;;;;20.67;9.52;;;;;;;24.46;84.47;65574.88;5050593;28;20733;-53
2023/07/21 06:52:36;;;;;;;13.63;8.02;;;;;;;24.44;81.88;65569.53;5049325;28;20236;-52
2023/07/21 06:55:03;;;;;;;25.60;18.98;;;;;;;24.41;84.43;65566.19;5050749;28;20194;-52
2023/07/21 06:57:29;;;;;;;20.35;11.23;;;;;;;24.52;84.17;65578.41;5050302;28;20213;-53
2023/07/21 06:59:54;;;;;;;14.80;7.60;;;;;;;24.66;81.95;65591.91;5050262;28;20197;-55
2023/07/21 07:02:21;;;;;;;14.57;7.45;;;;;;;24.78;81.05;65604.69;5050485;28;20258;-54
2023/07/21 07:04:48;;;;;;;15.13;6.95;;;;;;;24.88;79.74;65621.50;5050312;28;20201;-53
2023/07/21 07:07:16;;;;;;;17.90;9.73;;;;;;;24.86;81.50;65616.69;5032308;28;20290;-52
2023/07/21 07:09:42;;;;;;;10.15;7.07;;;;;;;24.87;81.50;65617.78;5032530;28;20198;-54
2023/07/21 07:12:08;;;;;;;11.10;7.03;;;;;;;25.20;78.62;65653.31;5050236;28;20228;-52
2023/07/21 07:14:34;;;;;;;11.25;6.85;;;;;;;25.16;75.59;65649.44;5050327;28;20174;-53
2023/07/21 07:17:00;;;;;;;16.23;7.72;;;;;;;24.94;77.25;65623.00;5050350;28;20224;-52
2023/07/21 07:19:25;;;;;;;16.25;8.27;;;;;;;25.04;78.27;65635.53;5050344;28;20548;-52
2023/07/21 07:21:50;;;;;;;14.63;7.57;;;;;;;25.38;78.41;65673.28;5050483;28;20999;-52
2023/07/21 07:24:17;;;;;;;11.23;6.15;;;;;;;25.56;75.58;65691.25;5050282;28;20574;-52
2023/07/21 07:26:42;;;;;;;12.68;8.00;;;;;;;25.57;74.35;65697.53;5049936;28;20715;-52
2023/07/21 07:29:08;;;;;;;13.48;6.30;;;;;;;25.57;75.21;65696.97;5032254;28;20196;-51
2023/07/21 07:31:36;;;;;;;16.58;7.05;;;;;;;25.68;71.26;65707.16;5050179;28;20598;-51
2023/07/21 07:34:03;;;;;;;10.25;6.28;;;;;;;25.64;72.19;65702.16;5049983;28;20201;-53
2023/07/21 07:36:35;;;;;;;19.98;7.18;;;;;;;25.81;70.92;65721.03;5050068;28;20209;-53
2023/07/21 07:39:01;;;;;;;9.30;6.55;;;;;;;25.81;69.82;65718.47;5050128;28;20202;-54
2023/07/21 07:41:26;;;;;;;10.50;7.03;;;;;;;25.95;70.37;65736.03;5032673;28;20202;-53
2023/07/21 07:43:53;;;;;;;16.30;7.22;;;;;;;26.10;70.68;65750.69;5050083;28;20579;-56
2023/07/21 07:46:18;;;;;;;13.40;6.68;;;;;;;26.27;70.98;65771.59;5049681;28;20210;-52
2023/07/21 07:48:45;;;;;;;10.25;7.00;;;;;;;26.29;71.67;65774.38;5050117;28;20188;-52
2023/07/21 07:51:10;;;;;;;15.73;6.75;;;;;;;26.67;71.85;65816.03;5050084;28;20217;-53
2023/07/21 07:53:37;;;;;;;12.38;6.72;;;;;;;26.97;67.69;65848.81;5049993;28;20676;-52
2023/07/21 07:56:03;;;;;;;9.15;6.13;;;;;;;26.95;65.22;65846.59;5049748;28;20205;-53
2023/07/21 07:58:29;;;;;;;8.70;6.10;;;;;;;27.03;63.75;65852.91;5049988;28;20206;-62
2023/07/21 08:00:58;;;;;;;11.07;5.65;;;;;;;27.17;63.87;65871.63;5049873;28;20220;-54
2023/07/21 08:03:25;;;;;;;11.07;5.78;;;;;;;27.21;61.21;65875.53;5049809;28;20205;-53
2023/07/21 08:05:52;;;;;;;14.25;6.00;;;;;;;27.10;61.95;65860.69;5049608;28;20726;-53
2023/07/21 08:08:21;;;;;;;8.63;5.20;;;;;;;27.17;62.10;65871.09;5049901;28;20225;-52
2023/07/21 08:10:48;;;;;;;12.18;6.70;;;;;;;27.36;62.43;65889.63;5049534;28;20197;-52
2023/07/21 08:13:14;;;;;;;12.63;5.70;;;;;;;27.57;60.91;65912.97;5053107;28;20327;-54
2023/07/21 08:15:44;;;;;;;10.35;5.72;;;;;;;27.76;61.04;65936.13;5034983;28;20339;-54
2023/07/21 08:18:12;;;;;;;10.38;5.45;;;;;;;27.81;62.16;65942.25;5053635;28;20213;-52
2023/07/21 08:20:40;;;;;;;11.18;5.03;;;;;;;28.12;59.75;65976.19;5052801;28;20193;-54
2023/07/21 08:23:05;;;;;;;9.38;5.22;;;;;;;28.17;58.30;65981.78;5053343;28;20214;-53
2023/07/21 08:25:31;;;;;;;13.70;5.82;;;;;;;28.24;60.00;65990.09;5034918;28;20240;-53
2023/07/21 08:27:59;;;;;;;8.02;4.80;;;;;;;28.42;55.68;66006.44;5052911;28;20232;-52
2023/07/21 08:30:26;;;;;;;6.65;5.05;;;;;;;28.42;56.13;66006.44;5052932;28;20197;-52
2023/07/21 08:32:51;;;;;;;8.45;4.82;;;;;;;28.60;55.24;66029.66;5052779;28;20221;-54
2023/07/21 08:35:17;;;;;;;5.32;4.45;;;;;;;28.41;54.87;66005.88;5053084;28;20289;-53
2023/07/21 08:37:42;;;;;;;11.77;4.65;;;;;;;28.29;54.47;65991.97;5053266;28;20213;-53
2023/07/21 08:40:09;;;;;;;9.00;4.70;;;;;;;28.30;55.47;65993.63;5052760;28;20270;-52
2023/07/21 08:42:36;;;;;;;9.20;5.13;;;;;;;28.68;54.64;66038.00;5053014;28;20213;-54
2023/07/21 08:45:04;;;;;;;9.65;5.50;;;;;;;28.84;53.49;66053.22;5052868;28;20182;-52
2023/07/21 08:47:30;;;;;;;14.93;6.10;;;;;;;29.10;53.78;66084.75;5052512;28;20205;-52
2023/07/21 08:49:57;;;;;;;9.32;4.72;;;;;;;29.10;55.92;66084.75;5052761;28;20189;-52
2023/07/21 08:52:23;;;;;;;9.18;5.47;;;;;;;28.95;53.65;66068.03;5052567;28;20267;-52
2023/07/21 08:54:49;;;;;;;12.27;5.38;;;;;;;28.87;56.06;66056.53;5052662;28;20209;-54
2023/07/21 08:57:14;;;;;;;11.23;5.57;;;;;;;29.17;56.02;66089.97;5052471;28;20255;-53
2023/07/21 08:59:41;;;;;;;7.60;4.75;;;;;;;29.24;54.87;66097.75;5052551;28;20670;-53
2023/07/21 09:02:08;;;;;;;10.65;5.22;;;;;;;29.31;54.99;66102.94;5052854;28;20217;-52
2023/07/21 09:04:33;;;;;;;11.65;5.43;;;;;;;29.40;53.90;66115.03;5052524;28;20274;-53
2023/07/21 09:07:01;;;;;;;8.57;5.15;;;;;;;29.40;53.48;66118.19;5052162;28;20699;-51
2023/07/21 09:09:28;;;;;;;7.35;4.85;;;;;;;29.51;52.97;66130.41;5052285;28;20194;-52
2023/07/21 09:12:04;;;;;;;5.93;4.68;;;;;;;29.61;52.83;66138.41;5051839;28;20247;-52
2023/07/21 09:14:38;;;;;;;20.00;8.27;;;;;;;29.63;51.63;66138.03;5052189;28;20201;-54
2023/07/21 09:17:07;;;;;;;10.40;5.43;;;;;;;29.84;52.58;66166.66;5051828;28;20217;-52
2023/07/21 09:19:41;;;;;;;8.60;4.32;;;;;;;30.10;50.25;66189.88;5052076;28;20228;-52
2023/07/21 09:22:08;;;;;;;11.38;4.95;;;;;;;30.08;47.95;66190.25;5051628;28;20220;-52
2023/07/21 09:24:34;;;;;;;6.63;4.30;;;;;;;29.71;48.35;66152.72;5051952;28;20288;-53
2023/07/21 09:27:19;;;;;;;10.50;4.65;;;;;;;29.57;48.89;66134.50;5034060;28;20320;-53
2023/07/21 09:29:45;;;;;;;9.70;4.82;;;;;;;29.83;50.08;66166.09;5051935;28;20274;-52
2023/07/21 09:32:15;;;;;;;9.52;5.00;;;;;;;30.22;52.36;66209.00;5051702;28;20217;-52
2023/07/21 09:34:59;;;;;;;12.10;5.07;;;;;;;30.55;52.61;66245.25;5051969;28;20201;-53
2023/07/21 09:37:26;;;;;;;7.18;4.47;;;;;;;30.73;49.89;66265.31;5051527;28;20699;-52
2023/07/21 09:39:57;;;;;;;7.57;4.75;;;;;;;30.95;51.34;66284.66;5051497;28;20292;-51
2023/07/21 09:42:27;;;;;;;9.52;4.65;;;;;;;30.93;48.56;66285.03;5050355;28;20330;-52
2023/07/21 09:44:54;;;;;;;10.15;5.68;;;;;;;31.14;49.77;66308.47;5051510;28;20201;-53
2023/07/21 09:47:21;;;;;;;11.07;5.07;;;;;;;31.24;49.46;66322.22;5051876;28;20205;-56
2023/07/21 09:49:51;;;;;;;7.35;5.50;;;;;;;31.35;48.94;66333.94;5051561;28;20668;-52
2023/07/21 09:52:21;;;;;;;9.82;5.80;;;;;;;31.38;47.82;66335.25;5051846;28;20217;-53
2023/07/21 09:55:10;;;;;;;9.05;5.30;;;;;;;31.42;45.46;66342.31;5033784;28;20188;-52
2023/07/21 09:57:41;;;;;;;12.98;5.05;;;;;;;31.38;44.68;66334.66;5051429;28;20217;-52
2023/07/21 10:00:14;;;;;;;9.18;5.03;;;;;;;31.57;47.70;66355.91;5051579;28;20204;-53
2023/07/21 10:02:42;;;;;;;8.85;4.60;;;;;;;31.34;45.53;66330.22;5033537;28;20217;-54
2023/07/21 10:05:10;;;;;;;24.30;5.35;;;;;;;31.60;45.44;66356.63;5050000;28;20284;-56
2023/07/21 10:07:42;;;;;;;7.80;5.78;;;;;;;31.97;48.44;66397.38;5051352;28;20221;-52
2023/07/21 10:10:09;;;;;;;13.10;4.97;;;;;;;32.17;46.45;66422.31;5051467;28;20194;-52
2023/07/21 10:13:07;;;;;;;5.55;4.95;;;;;;;32.31;44.63;66437.94;5033285;28;20224;-53
2023/07/21 10:15:35;;;;;;;9.40;4.72;;;;;;;32.24;42.64;66430.13;5050256;28;20227;-53
2023/07/21 10:18:06;;;;;;;10.32;5.68;;;;;;;32.51;44.67;66462.34;5049628;28;20205;-54
2023/07/21 10:20:38;;;;;;;9.18;4.65;;;;;;;32.39;43.29;66444.25;5033622;28;20217;-54
2023/07/21 10:23:05;;;;;;;7.95;4.72;;;;;;;32.38;44.21;66443.16;5049849;28;20197;-53
2023/07/21 10:25:48;;;;;;;9.55;4.85;;;;;;;32.59;43.72;66466.59;5051066;28;20225;-55
2023/07/21 10:28:13;;;;;;;7.75;4.85;;;;;;;32.94;43.98;66508.31;5051241;28;20201;-52
2023/07/21 10:30:39;;;;;;;8.25;4.88;;;;;;;33.20;44.25;66536.25;5050971;28;20695;-52
2023/07/21 10:33:17;;;;;;;6.90;4.85;;;;;;;33.26;43.18;66542.97;5048990;28;20687;-55
2023/07/21 10:35:42;;;;;;;7.10;4.80;;;;;;;33.29;41.98;66543.69;5033158;28;20353;-52
2023/07/21 10:38:14;;;;;;;7.80;4.50;;;;;;;32.90;41.93;66503.84;5049589;28;20313;-53
2023/07/21 10:40:44;;;;;;;11.35;4.68;;;;;;;32.78;42.40;66487.84;5050886;28;20193;-52
2023/07/21 10:43:10;;;;;;;7.65;4.88;;;;;;;32.98;40.74;66510.19;5033195;28;20213;-52
2023/07/21 10:45:38;;;;;;;8.02;4.72;;;;;;;33.13;42.52;66526.38;5050651;28;20582;-53
2023/07/21 10:48:15;;;;;;;8.75;4.95;;;;;;;33.32;41.42;66549.66;5049500;28;20225;-53
2023/07/21 10:50:58;;;;;;;8.40;4.97;;;;;;;33.42;41.72;66564.00;5050802;28;20275;-53
2023/07/21 10:53:24;;;;;;;8.82;4.45;;;;;;;33.70;40.82;66589.53;5051070;28;20197;-53
2023/07/21 10:55:52;;;;;;;12.85;5.30;;;;;;;34.01;42.54;66624.19;5049335;28;20607;-57
2023/07/21 10:58:18;;;;;;;7.00;5.32;;;;;;;34.23;41.47;66654.03;5051130;28;20636;-53
2023/07/21 11:00:51;;;;;;;10.68;4.90;;;;;;;34.35;39.90;66664.28;5049149;28;20201;-52
2023/07/21 11:03:18;;;;;;;8.27;4.55;;;;;;;34.27;38.74;66658.50;5050578;28;20217;-53
2023/07/21 11:05:45;;;;;;;7.68;4.47;;;;;;;33.99;39.43;66627.22;5050454;28;20209;-53
2023/07/21 11:08:32;;;;;;;10.10;4.60;;;;;;;34.24;38.84;66652.53;5050372;28;20340;-57
2023/07/21 11:10:57;;;;;;;8.00;4.82;;;;;;;34.36;37.03;66662.78;5049980;28;20221;-54
2023/07/21 11:13:23;;;;;;;6.57;4.63;;;;;;;34.53;38.05;66681.81;5050309;28;20220;-56
2023/07/21 11:15:53;;;;;;;7.97;5.00;;;;;;;34.60;35.96;66690.19;5050299;28;20216;-53
2023/07/21 11:18:20;;;;;;;9.35;5.05;;;;;;;34.19;35.87;66649.00;5050313;28;20284;-53
2023/07/21 11:20:53;;;;;;;8.75;4.65;;;;;;;33.89;36.01;66613.38;5050412;28;20201;-53
2023/07/21 11:23:23;;;;;;;8.45;5.10;;;;;;;33.30;36.89;66547.44;5050202;28;20205;-52
2023/07/21 11:26:19;;;;;;;5.85;4.18;;;;;;;33.02;36.24;66517.28;5050164;28;20213;-52
2023/07/21 11:28:44;;;;;;;13.88;5.22;;;;;;;32.97;36.67;66511.69;5029139;28;20221;-52
2023/07/21 11:31:15;;;;;;;8.68;4.95;;;;;;;33.71;36.84;66593.84;5050106;28;20212;-61
2023/07/21 11:33:44;;;;;;;6.25;4.68;;;;;;;34.23;37.30;66650.84;5050186;28;20304;-51